Latest Weather Observations for Forrest

IDW60801

Issued at 8:04 am WST Monday 26 January 2015 (issued every 30 minutes, with the page automatically refreshed every 10 minutes)

About weather observations | Map of weather stations | Latest weather observations for WA | Other Formats
Station Details ID: 011052 Name: FORREST Lat: -30.85 Lon: 128.11 Height: 159.0 m
Data from the previous 72 hours. | See also: Recent months at Forrest
Date/Time
WST
Temp
°C
App
Temp
°C
Dew
Point
Rel
Hum
%
Delta-T
°C
Wind Press
QNH
hPa
Press
MSL
hPa
Rain
since 9 am
mm
Dir
 
Spd
km/h
Gust
km/h
Spd
kts
Gust
kts
25/06:00pm 21.9 15.5 8.4 42 7.2 SE 32 46 17 25 1016.4 1015.7 0.0
25/05:30pm 23.3 16.9 8.6 39 7.9 SSE 32 43 17 23 1016.1 - 0.0
25/05:00pm 24.6 18.5 8.1 35 8.8 SSE 30 44 16 24 1015.7 - 0.0
25/04:57pm 24.5 18.7 8.0 35 8.8 SSE 28 46 15 25 1015.6 - 0.0
25/04:30pm 25.6 19.5 8.1 33 9.4 SSE 30 39 16 21 1015.4 - 0.0
25/04:00pm 26.6 21.6 8.1 31 10.0 S 24 41 13 22 1015.2 - 0.0
25/03:30pm 27.0 21.6 8.0 30 10.3 SE 26 41 14 22 1015.2 - 0.0
25/03:00pm 28.0 23.1 8.3 29 10.8 S 24 37 13 20 1015.2 1014.4 0.0
25/02:30pm 28.4 23.8 8.1 28 11.1 S 22 32 12 17 1015.5 - 0.0
25/02:00pm 27.9 23.6 7.2 27 11.1 SE 19 32 10 17 1015.6 - 0.0
25/01:30pm 28.0 23.3 7.8 28 11.0 S 22 39 12 21 1015.7 - 0.0
25/01:00pm 26.5 22.3 7.5 30 10.2 SE 19 32 10 17 1015.9 - 0.0
25/12:30pm 27.0 23.7 8.0 30 10.3 SE 15 28 8 15 1016.1 - 0.0
25/12:00pm 26.2 23.5 7.3 30 10.1 W 11 28 6 15 1016.4 1015.7 0.0
25/11:30am 25.5 22.5 7.6 32 9.6 S 13 22 7 12 1016.8 - 0.0
25/11:00am 25.2 20.1 7.8 33 9.3 SE 24 30 13 16 1017.2 - 0.0
25/10:30am 24.4 21.0 7.5 34 9.0 SSE 15 30 8 16 1017.4 - 0.0
25/10:00am 23.8 20.7 9.0 39 8.0 ESE 15 24 8 13 1017.4 - 0.0
25/09:30am 22.8 19.0 9.2 42 7.4 SE 19 33 10 18 1017.6 - 0.0
25/09:00am 21.8 18.0 9.0 44 6.9 SE 19 26 10 14 1017.5 1016.8 0.0
25/08:30am 21.8 18.1 10.0 47 6.4 SE 20 28 11 15 1017.4 - 0.0
25/08:00am 20.5 16.8 10.3 52 5.6 SE 20 30 11 16 1017.5 - 0.0
25/07:30am 21.0 17.6 11.1 53 5.5 SE 20 28 11 15 1017.5 - 0.0
25/07:00am 19.4 15.4 11.9 62 4.2 SE 24 35 13 19 1017.3 - 0.0
25/06:30am 18.5 15.4 12.3 67 3.5 SE 20 28 11 15 1017.2 - 0.0
25/06:00am 17.0 14.9 12.5 75 2.5 SE 15 20 8 11 1016.7 1016.0 0.0
25/05:30am 14.2 12.6 11.4 83 1.5 S 11 13 6 7 1016.3 - 0.0
25/05:00am 13.5 11.7 10.9 84 1.4 S 11 13 6 7 1015.9 - 0.0
25/04:30am 13.4 11.2 10.8 84 1.4 S 13 13 7 7 1015.6 - 0.0
25/04:00am 13.6 12.5 10.6 82 1.6 S 7 9 4 5 1015.4 - 0.0
25/03:30am 13.7 12.8 10.5 81 1.7 S 6 7 3 4 1015.2 - 0.0
25/03:00am 14.3 12.6 11.3 82 1.6 S 11 13 6 7 1015.0 1014.2 0.0
25/02:30am 14.8 12.8 11.4 80 1.8 SSE 13 15 7 8 1015.0 - 0.0
25/02:00am 14.9 13.6 11.3 79 1.9 S 9 11 5 6 1015.1 - 0.0
25/01:30am 15.1 13.4 11.3 78 2.0 SSE 11 15 6 8 1015.0 - 0.0
25/01:00am 15.4 13.7 11.2 76 2.3 S 11 15 6 8 1015.2 - 0.0
25/12:30am 15.5 13.4 11.1 75 2.4 SSE 13 15 7 8 1015.1 - 0.0
25/12:00am 16.3 14.3 11.5 73 2.6 S 13 17 7 9 1015.2 1014.4 0.0
 
Date/Time
WST
Temp
°C
App
Temp
°C
Dew
Point
Rel
Hum
%
Delta-T
°C
Wind Press
QNH
hPa
Press
MSL
hPa
Rain
since 9 am
mm
Dir
 
Spd
km/h
Gust
km/h
Spd
kts
Gust
kts
24/11:30pm 17.0 14.7 11.7 71 2.9 S 15 19 8 10 1015.3 - 0.0
24/11:00pm 17.4 14.7 11.7 69 3.1 SSE 17 20 9 11 1015.4 - 0.0
24/10:30pm 17.6 15.3 11.6 68 3.3 SE 15 20 8 11 1015.7 - 0.0
24/10:00pm 17.9 16.3 11.5 66 3.5 SE 11 15 6 8 1015.8 - 0.0
24/09:30pm 18.6 16.3 11.7 64 3.8 SSE 15 20 8 11 1015.9 - 0.0
24/09:00pm 19.2 15.9 11.7 62 4.2 S 20 28 11 15 1016.0 1015.2 0.0
24/08:30pm 19.6 16.3 10.9 57 4.8 SSE 19 26 10 14 1015.6 - 0.0
24/08:00pm 20.1 15.8 10.8 55 5.1 SSE 24 33 13 18 1015.5 - 0.0
24/07:30pm 20.8 15.6 10.3 51 5.7 S 28 39 15 21 1014.8 - 0.0
24/07:00pm 21.5 15.4 10.6 50 6.0 S 33 43 18 23 1014.2 - 0.0
24/06:30pm 22.5 16.8 11.3 49 6.3 S 32 43 17 23 1013.7 - 0.0
24/06:00pm 23.9 18.0 10.6 43 7.4 S 32 43 17 23 1013.2 1012.4 0.0
24/05:30pm 25.7 19.5 9.5 36 9.0 S 32 44 17 24 1012.8 - 0.0
24/05:00pm 26.6 20.0 8.6 32 9.8 S 33 48 18 26 1012.1 - 0.0
24/04:30pm 28.4 22.0 9.2 30 10.7 S 33 48 18 26 1011.8 - 0.0
24/04:18pm 29.4 24.0 9.5 29 11.2 S 28 46 15 25 1011.5 - 0.0
24/04:00pm 29.3 22.9 9.4 29 11.2 S 33 43 18 23 1011.3 - 0.0
24/03:30pm 30.6 24.6 7.1 23 12.8 S 28 48 15 26 1011.2 - 0.0
24/03:26pm 30.0 23.8 7.8 25 12.2 S 30 48 16 26 1011.2 - 0.0
24/03:00pm 31.3 25.2 6.4 21 13.5 SSW 28 41 15 22 1011.0 1010.3 0.0
24/02:30pm 31.5 25.7 7.9 23 13.1 S 28 46 15 25 1011.1 - 0.0
24/02:05pm 30.7 24.6 6.6 22 13.0 SW 28 46 15 25 1011.4 - 0.0
24/02:00pm 31.0 25.5 6.1 21 13.4 SW 24 46 13 25 1011.3 - 0.0
24/01:30pm 31.3 25.6 8.3 24 12.8 SSW 28 44 15 24 1011.6 - 0.0
24/01:00pm 30.3 23.9 8.7 26 12.1 SW 32 43 17 23 1012.0 - 0.0
24/12:30pm 29.3 25.3 8.9 28 11.4 SSW 20 41 11 22 1012.0 - 0.0
24/12:00pm 28.9 24.5 9.1 29 11.0 SSW 22 37 12 20 1012.4 1011.6 0.0
24/11:30am 27.9 23.8 10.1 33 10.0 SSW 22 32 12 17 1012.7 - 0.0
24/11:00am 26.8 22.9 9.6 34 9.6 S 20 28 11 15 1013.1 - 0.0
24/10:30am 26.3 22.2 10.0 36 9.1 SSW 22 33 12 18 1013.4 - 0.0
24/10:00am 25.1 21.7 10.6 40 8.1 S 19 32 10 17 1013.5 - 0.0
24/09:30am 25.0 22.5 11.2 42 7.8 S 15 26 8 14 1013.6 - 0.0
24/09:00am 23.4 21.1 11.8 48 6.6 S 15 24 8 13 1013.5 1012.7 0.0
24/08:30am 22.8 20.5 11.8 50 6.2 S 15 24 8 13 1013.5 - 0.0
24/08:00am 21.5 19.8 12.4 56 5.2 S 13 20 7 11 1013.4 - 0.0
24/07:30am 21.1 19.0 12.5 58 4.9 S 15 20 8 11 1013.5 - 0.0
24/07:00am 19.6 19.3 12.6 64 4.0 S 6 9 3 5 1013.5 - 0.0
24/06:30am 18.2 17.7 12.2 68 3.3 S 6 9 3 5 1013.3 - 0.0
24/06:00am 16.7 16.1 11.6 72 2.8 S 6 7 3 4 1013.0 1012.2 0.0
24/05:30am 14.9 13.4 10.7 76 2.2 SSW 9 9 5 5 1013.0 - 0.0
24/05:00am 13.3 11.9 9.5 78 2.0 SSW 7 9 4 5 1012.7 - 0.0
24/04:30am 13.2 11.4 9.6 79 1.9 SSW 9 11 5 6 1012.5 - 0.0
24/04:00am 13.3 11.9 9.4 77 2.0 SW 7 9 4 5 1012.1 - 0.0
24/03:30am 14.1 13.4 10.1 77 2.1 W 4 7 2 4 1011.8 - 0.0
24/03:00am 14.2 13.5 10.2 77 2.1 NE 4 6 2 3 1011.1 1010.4 0.0
24/02:30am 14.5 13.3 10.3 76 2.2 NNE 7 7 4 4 1011.0 - 0.0
24/02:00am 15.0 13.6 10.8 76 2.2 ENE 9 9 5 5 1010.9 - 0.0
24/01:30am 15.3 13.5 10.9 75 2.4 E 11 13 6 7 1011.0 - 0.0
24/01:00am 16.0 14.9 11.8 76 2.3 E 9 13 5 7 1011.4 - 0.0
24/12:30am 16.3 15.1 11.7 74 2.5 E 9 9 5 5 1012.1 - 0.0
24/12:00am 16.6 15.0 11.7 73 2.7 E 11 13 6 7 1012.2 1011.4 0.0
 
Date/Time
WST
Temp
°C
App
Temp
°C
Dew
Point
Rel
Hum
%
Delta-T
°C
Wind Press
QNH
hPa
Press
MSL
hPa
Rain
since 9 am
mm
Dir
 
Spd
km/h
Gust
km/h
Spd
kts
Gust
kts
23/11:30pm 17.3 15.5 12.2 72 2.8 ESE 13 15 7 8 1012.4 - 0.0
23/11:00pm 18.1 15.7 12.5 70 3.1 E 17 20 9 11 1012.3 - 0.0
23/10:30pm 18.5 16.1 12.5 68 3.4 ESE 17 20 9 11 1012.8 - 0.0
23/10:00pm 18.9 15.9 12.4 66 3.7 ESE 20 26 11 14 1013.2 - 0.0
23/09:30pm 19.3 15.6 12.8 66 3.7 SE 24 33 13 18 1013.4 - 0.0
23/09:00pm 19.8 16.1 12.6 63 4.1 SE 24 35 13 19 1013.2 1012.4 0.0
23/08:30pm 20.3 15.8 12.5 61 4.4 SE 28 35 15 19 1013.1 - 0.0
23/08:00pm 21.0 16.5 12.7 59 4.7 SE 28 41 15 22 1012.5 - 0.0
23/07:30pm 22.2 17.3 12.5 54 5.5 SSE 30 41 16 22 1012.1 - 0.0
23/07:00pm 23.6 18.2 12.3 49 6.5 SE 32 43 17 23 1011.8 - 0.0
23/06:30pm 25.4 20.3 11.9 43 7.8 SE 30 41 16 22 1011.2 - 0.0
23/06:00pm 28.4 23.2 10.1 32 10.4 SE 28 35 15 19 1010.4 1009.6 0.0
23/05:30pm 30.4 26.9 8.7 26 12.1 S 17 24 9 13 1010.0 - 0.0
23/05:00pm 30.8 28.4 8.5 25 12.4 S 11 20 6 11 1009.8 - 0.0
23/04:30pm 31.2 27.9 8.2 24 12.8 SW 15 30 8 16 1009.8 - 0.0
23/04:00pm 30.5 27.3 8.3 25 12.3 SE 15 22 8 12 1009.9 - 0.0
23/03:30pm 31.1 27.8 8.2 24 12.7 S 15 24 8 13 1010.2 - 0.0
23/03:00pm 30.3 27.0 8.1 25 12.3 SSW 15 24 8 13 1010.6 1009.8 0.0
23/02:30pm 30.4 28.0 8.7 26 12.1 ESE 11 20 6 11 1010.7 - 0.0
23/02:00pm 30.4 26.5 8.7 26 12.1 SW 19 24 10 13 1011.1 - 0.0
23/01:30pm 29.6 26.1 8.6 27 11.7 SSW 17 30 9 16 1011.3 - 0.0
23/01:00pm 28.6 26.4 9.3 30 10.8 SSE 11 26 6 14 1012.0 - 0.0
23/12:30pm 27.3 23.4 8.7 31 10.2 S 19 32 10 17 1012.6 - 0.0
23/12:00pm 26.0 24.6 9.4 35 9.2 ESE 7 19 4 10 1013.2 1012.4 0.0
23/11:30am 27.1 24.7 9.9 34 9.6 SSE 13 24 7 13 1013.6 - 0.0
23/11:00am 25.8 23.5 10.4 38 8.6 SE 13 26 7 14 1014.0 - 0.0
23/10:30am 25.2 23.4 11.0 41 8.0 SE 11 19 6 10 1014.4 - 0.0
23/10:00am 23.5 20.2 10.9 45 7.1 SE 19 28 10 15 1015.0 - 0.0
23/09:30am 23.5 20.9 11.9 48 6.6 SE 17 26 9 14 1015.2 - 0.0
23/09:00am 22.5 19.8 11.6 50 6.1 SE 17 26 9 14 1015.4 1014.6 0.0
23/08:30am 21.4 18.2 12.0 55 5.3 SE 20 30 11 16 1015.5 - 0.0

Other Formats:

Comma delimited format used in spreadsheet applications
http://www.bom.gov.au/fwo/IDW60801/IDW60801.95646.axf

JavaScript Object Notation format (JSON) in row-major order
http://www.bom.gov.au/fwo/IDW60801/IDW60801.95646.json